sensor_id;sensor_type;location;lat;lon;timestamp;temperature;humidity
56268;DHT22;42175;46.930;9.532;2023-02-01T00:00:20;23.80;35.00
56268;DHT22;42175;46.930;9.532;2023-02-01T00:02:45;23.80;34.90
56268;DHT22;42175;46.930;9.532;2023-02-01T00:05:11;23.80;34.90
56268;DHT22;42175;46.930;9.532;2023-02-01T00:07:37;23.80;35.50
56268;DHT22;42175;46.930;9.532;2023-02-01T00:10:07;23.80;34.90
56268;DHT22;42175;46.930;9.532;2023-02-01T00:12:33;23.80;34.90
56268;DHT22;42175;46.930;9.532;2023-02-01T00:14:59;23.80;35.00
56268;DHT22;42175;46.930;9.532;2023-02-01T00:17:24;23.80;35.00
56268;DHT22;42175;46.930;9.532;2023-02-01T00:19:50;23.80;34.90
56268;DHT22;42175;46.930;9.532;2023-02-01T00:22:16;23.80;35.00
56268;DHT22;42175;46.930;9.532;2023-02-01T00:24:42;23.80;35.10
56268;DHT22;42175;46.930;9.532;2023-02-01T00:27:07;23.80;35.10
56268;DHT22;42175;46.930;9.532;2023-02-01T00:29:33;23.80;35.20
56268;DHT22;42175;46.930;9.532;2023-02-01T00:31:59;23.80;35.20
56268;DHT22;42175;46.930;9.532;2023-02-01T00:34:25;23.80;35.30
56268;DHT22;42175;46.930;9.532;2023-02-01T00:36:50;23.80;35.30
56268;DHT22;42175;46.930;9.532;2023-02-01T00:39:16;23.80;35.20
56268;DHT22;42175;46.930;9.532;2023-02-01T00:41:42;23.80;35.20
56268;DHT22;42175;46.930;9.532;2023-02-01T00:44:08;23.80;35.10
56268;DHT22;42175;46.930;9.532;2023-02-01T00:46:34;23.80;35.20
56268;DHT22;42175;46.930;9.532;2023-02-01T00:49:00;23.80;35.10
56268;DHT22;42175;46.930;9.532;2023-02-01T00:51:27;23.80;35.20
56268;DHT22;42175;46.930;9.532;2023-02-01T00:53:54;23.80;35.20
56268;DHT22;42175;46.930;9.532;2023-02-01T00:56:20;23.80;35.10
56268;DHT22;42175;46.930;9.532;2023-02-01T00:58:46;23.80;35.10
56268;DHT22;42175;46.930;9.532;2023-02-01T01:03:44;23.80;35.10
56268;DHT22;42175;46.930;9.532;2023-02-01T01:06:13;23.70;35.10
56268;DHT22;42175;46.930;9.532;2023-02-01T01:08:39;23.70;35.10
56268;DHT22;42175;46.930;9.532;2023-02-01T01:11:23;23.70;35.10
56268;DHT22;42175;46.930;9.532;2023-02-01T01:13:51;23.70;35.10
56268;DHT22;42175;46.930;9.532;2023-02-01T01:16:17;23.70;35.30
56268;DHT22;42175;46.930;9.532;2023-02-01T01:18:43;23.80;35.40
56268;DHT22;42175;46.930;9.532;2023-02-01T01:21:12;23.70;35.30
56268;DHT22;42175;46.930;9.532;2023-02-01T01:23:38;23.70;35.30
56268;DHT22;42175;46.930;9.532;2023-02-01T01:26:09;23.70;35.30
56268;DHT22;42175;46.930;9.532;2023-02-01T01:28:36;23.70;35.30
56268;DHT22;42175;46.930;9.532;2023-02-01T01:31:02;23.70;35.20
56268;DHT22;42175;46.930;9.532;2023-02-01T01:33:28;23.70;35.20
56268;DHT22;42175;46.930;9.532;2023-02-01T01:35:54;23.70;35.10
56268;DHT22;42175;46.930;9.532;2023-02-01T01:38:20;23.70;35.10
56268;DHT22;42175;46.930;9.532;2023-02-01T01:40:46;23.70;35.10
56268;DHT22;42175;46.930;9.532;2023-02-01T01:43:18;23.70;35.10
56268;DHT22;42175;46.930;9.532;2023-02-01T01:45:46;23.70;35.00
56268;DHT22;42175;46.930;9.532;2023-02-01T01:48:18;23.70;35.00
56268;DHT22;42175;46.930;9.532;2023-02-01T01:50:54;23.70;35.00
56268;DHT22;42175;46.930;9.532;2023-02-01T01:53:27;23.70;35.00
56268;DHT22;42175;46.930;9.532;2023-02-01T01:55:56;23.70;35.00
56268;DHT22;42175;46.930;9.532;2023-02-01T01:58:27;23.70;35.00
56268;DHT22;42175;46.930;9.532;2023-02-01T02:00:54;23.70;35.00
56268;DHT22;42175;46.930;9.532;2023-02-01T02:03:36;23.70;35.00
56268;DHT22;42175;46.930;9.532;2023-02-01T02:06:06;23.70;34.90
56268;DHT22;42175;46.930;9.532;2023-02-01T02:08:33;23.70;35.00
56268;DHT22;42175;46.930;9.532;2023-02-01T02:10:59;23.70;35.00
56268;DHT22;42175;46.930;9.532;2023-02-01T02:16:11;23.70;35.00
56268;DHT22;42175;46.930;9.532;2023-02-01T02:32:19;23.70;35.00
56268;DHT22;42175;46.930;9.532;2023-02-01T02:34:55;23.70;35.00
56268;DHT22;42175;46.930;9.532;2023-02-01T02:37:48;23.70;35.00
56268;DHT22;42175;46.930;9.532;2023-02-01T02:40:37;23.70;35.00
56268;DHT22;42175;46.930;9.532;2023-02-01T02:52:15;23.70;34.90
56268;DHT22;42175;46.930;9.532;2023-02-01T02:55:03;23.70;35.00
56268;DHT22;42175;46.930;9.532;2023-02-01T02:57:37;23.70;34.90
56268;DHT22;42175;46.930;9.532;2023-02-01T03:00:27;23.70;34.90
56268;DHT22;42175;46.930;9.532;2023-02-01T03:03:12;23.60;34.90
56268;DHT22;42175;46.930;9.532;2023-02-01T03:05:57;23.60;35.00
56268;DHT22;42175;46.930;9.532;2023-02-01T03:08:25;23.70;35.00
56268;DHT22;42175;46.930;9.532;2023-02-01T03:11:03;23.60;34.90
56268;DHT22;42175;46.930;9.532;2023-02-01T03:19:15;23.60;34.90
56268;DHT22;42175;46.930;9.532;2023-02-01T03:24:18;23.60;34.80
56268;DHT22;42175;46.930;9.532;2023-02-01T03:26:53;23.60;34.90
56268;DHT22;42175;46.930;9.532;2023-02-01T03:29:25;23.60;34.90
56268;DHT22;42175;46.930;9.532;2023-02-01T03:31:53;23.60;34.80
56268;DHT22;42175;46.930;9.532;2023-02-01T03:34:18;23.60;34.80
56268;DHT22;42175;46.930;9.532;2023-02-01T03:42:16;23.60;34.80
56268;DHT22;42175;46.930;9.532;2023-02-01T03:44:49;23.60;34.80
56268;DHT22;42175;46.930;9.532;2023-02-01T03:47:29;23.60;34.70
56268;DHT22;42175;46.930;9.532;2023-02-01T03:49:58;23.60;34.80
56268;DHT22;42175;46.930;9.532;2023-02-01T03:52:33;23.60;34.80
56268;DHT22;42175;46.930;9.532;2023-02-01T03:55:02;23.60;34.70
56268;DHT22;42175;46.930;9.532;2023-02-01T03:57:33;23.60;34.70
56268;DHT22;42175;46.930;9.532;2023-02-01T04:00:27;23.60;34.70
56268;DHT22;42175;46.930;9.532;2023-02-01T04:02:53;23.60;34.80
56268;DHT22;42175;46.930;9.532;2023-02-01T04:05:20;23.60;34.70
56268;DHT22;42175;46.930;9.532;2023-02-01T04:07:45;23.60;34.70
56268;DHT22;42175;46.930;9.532;2023-02-01T04:10:12;23.60;34.80
56268;DHT22;42175;46.930;9.532;2023-02-01T04:12:38;23.60;34.80
56268;DHT22;42175;46.930;9.532;2023-02-01T04:15:04;23.60;34.70
56268;DHT22;42175;46.930;9.532;2023-02-01T04:17:30;23.60;34.70
56268;DHT22;42175;46.930;9.532;2023-02-01T04:19:56;23.60;34.70
56268;DHT22;42175;46.930;9.532;2023-02-01T04:22:22;23.60;34.70
56268;DHT22;42175;46.930;9.532;2023-02-01T04:24:47;23.60;34.70
56268;DHT22;42175;46.930;9.532;2023-02-01T04:27:13;23.60;34.70
56268;DHT22;42175;46.930;9.532;2023-02-01T04:29:39;23.60;34.70
56268;DHT22;42175;46.930;9.532;2023-02-01T04:32:05;23.60;34.70
56268;DHT22;42175;46.930;9.532;2023-02-01T04:34:31;23.60;34.70
56268;DHT22;42175;46.930;9.532;2023-02-01T04:36:57;23.60;34.70
56268;DHT22;42175;46.930;9.532;2023-02-01T04:39:23;23.60;34.70
56268;DHT22;42175;46.930;9.532;2023-02-01T04:41:49;23.60;34.70
56268;DHT22;42175;46.930;9.532;2023-02-01T04:44:16;23.60;34.60
56268;DHT22;42175;46.930;9.532;2023-02-01T04:46:43;23.60;34.60
56268;DHT22;42175;46.930;9.532;2023-02-01T04:49:10;23.60;34.60
56268;DHT22;42175;46.930;9.532;2023-02-01T04:51:36;23.60;34.50
56268;DHT22;42175;46.930;9.532;2023-02-01T04:54:02;23.60;34.60
56268;DHT22;42175;46.930;9.532;2023-02-01T04:56:28;23.60;34.60
56268;DHT22;42175;46.930;9.532;2023-02-01T04:58:54;23.60;34.60
56268;DHT22;42175;46.930;9.532;2023-02-01T05:01:22;23.60;34.50
56268;DHT22;42175;46.930;9.532;2023-02-01T05:03:48;23.60;34.60
56268;DHT22;42175;46.930;9.532;2023-02-01T05:06:14;23.60;34.60
56268;DHT22;42175;46.930;9.532;2023-02-01T05:08:40;23.60;34.60
56268;DHT22;42175;46.930;9.532;2023-02-01T05:11:06;23.60;34.60
56268;DHT22;42175;46.930;9.532;2023-02-01T05:13:32;23.60;34.60
56268;DHT22;42175;46.930;9.532;2023-02-01T05:16:16;23.60;34.60
56268;DHT22;42175;46.930;9.532;2023-02-01T05:18:42;23.60;34.60
56268;DHT22;42175;46.930;9.532;2023-02-01T05:21:08;23.60;34.50
56268;DHT22;42175;46.930;9.532;2023-02-01T05:23:33;23.60;34.50
56268;DHT22;42175;46.930;9.532;2023-02-01T05:26:19;23.60;34.60
56268;DHT22;42175;46.930;9.532;2023-02-01T05:28:45;23.60;34.60
56268;DHT22;42175;46.930;9.532;2023-02-01T05:31:11;23.60;34.50
56268;DHT22;42175;46.930;9.532;2023-02-01T05:33:37;23.60;34.60
56268;DHT22;42175;46.930;9.532;2023-02-01T05:36:03;23.60;34.50
56268;DHT22;42175;46.930;9.532;2023-02-01T05:38:29;23.60;34.40
56268;DHT22;42175;46.930;9.532;2023-02-01T05:40:58;23.60;34.30
56268;DHT22;42175;46.930;9.532;2023-02-01T05:43:23;23.70;34.40
56268;DHT22;42175;46.930;9.532;2023-02-01T05:45:51;23.70;34.40
56268;DHT22;42175;46.930;9.532;2023-02-01T05:48:17;23.70;34.40
56268;DHT22;42175;46.930;9.532;2023-02-01T05:50:43;23.70;34.30
56268;DHT22;42175;46.930;9.532;2023-02-01T05:53:08;23.70;34.40
56268;DHT22;42175;46.930;9.532;2023-02-01T05:55:34;23.70;34.30
56268;DHT22;42175;46.930;9.532;2023-02-01T05:58:01;23.70;34.30
56268;DHT22;42175;46.930;9.532;2023-02-01T06:00:27;23.70;34.60
56268;DHT22;42175;46.930;9.532;2023-02-01T06:02:53;23.70;34.90
56268;DHT22;42175;46.930;9.532;2023-02-01T06:05:18;23.70;35.00
56268;DHT22;42175;46.930;9.532;2023-02-01T06:07:44;23.70;34.90
56268;DHT22;42175;46.930;9.532;2023-02-01T06:10:10;23.70;34.40
56268;DHT22;42175;46.930;9.532;2023-02-01T06:12:36;23.60;34.70
56268;DHT22;42175;46.930;9.532;2023-02-01T06:15:02;23.60;34.60
56268;DHT22;42175;46.930;9.532;2023-02-01T06:17:28;23.60;34.50
56268;DHT22;42175;46.930;9.532;2023-02-01T06:19:54;23.60;34.40
56268;DHT22;42175;46.930;9.532;2023-02-01T06:22:20;23.60;34.50
56268;DHT22;42175;46.930;9.532;2023-02-01T06:24:47;23.60;34.20
56268;DHT22;42175;46.930;9.532;2023-02-01T06:27:14;23.60;34.00
56268;DHT22;42175;46.930;9.532;2023-02-01T06:29:40;23.60;34.10
56268;DHT22;42175;46.930;9.532;2023-02-01T06:32:06;23.60;34.00
56268;DHT22;42175;46.930;9.532;2023-02-01T06:34:32;23.60;33.60
56268;DHT22;42175;46.930;9.532;2023-02-01T06:36:58;23.60;33.50
56268;DHT22;42175;46.930;9.532;2023-02-01T06:39:23;23.60;33.70
56268;DHT22;42175;46.930;9.532;2023-02-01T06:41:50;23.50;33.40
56268;DHT22;42175;46.930;9.532;2023-02-01T06:44:16;23.50;33.50
56268;DHT22;42175;46.930;9.532;2023-02-01T06:46:42;23.60;33.30
56268;DHT22;42175;46.930;9.532;2023-02-01T06:49:08;23.50;33.60
56268;DHT22;42175;46.930;9.532;2023-02-01T06:51:35;23.50;33.60
56268;DHT22;42175;46.930;9.532;2023-02-01T06:54:01;23.50;32.70
56268;DHT22;42175;46.930;9.532;2023-02-01T06:56:27;23.60;33.60
56268;DHT22;42175;46.930;9.532;2023-02-01T06:58:53;23.50;33.50
56268;DHT22;42175;46.930;9.532;2023-02-01T07:01:19;23.60;33.60
56268;DHT22;42175;46.930;9.532;2023-02-01T07:03:49;23.60;33.80
56268;DHT22;42175;46.930;9.532;2023-02-01T07:06:17;23.60;34.30
56268;DHT22;42175;46.930;9.532;2023-02-01T07:08:43;23.60;34.30
56268;DHT22;42175;46.930;9.532;2023-02-01T07:11:11;23.60;34.30
56268;DHT22;42175;46.930;9.532;2023-02-01T07:13:39;23.60;34.30
56268;DHT22;42175;46.930;9.532;2023-02-01T07:16:07;23.60;34.50
56268;DHT22;42175;46.930;9.532;2023-02-01T07:18:34;23.60;34.50
56268;DHT22;42175;46.930;9.532;2023-02-01T07:21:00;23.60;34.50
56268;DHT22;42175;46.930;9.532;2023-02-01T07:23:26;23.60;34.70
56268;DHT22;42175;46.930;9.532;2023-02-01T07:25:57;23.60;35.10
56268;DHT22;42175;46.930;9.532;2023-02-01T07:28:23;23.60;35.00
56268;DHT22;42175;46.930;9.532;2023-02-01T07:30:49;23.60;34.90
56268;DHT22;42175;46.930;9.532;2023-02-01T07:33:18;23.70;34.90
56268;DHT22;42175;46.930;9.532;2023-02-01T07:35:45;23.60;34.80
56268;DHT22;42175;46.930;9.532;2023-02-01T07:38:11;23.60;34.40
56268;DHT22;42175;46.930;9.532;2023-02-01T07:40:36;23.60;34.50
56268;DHT22;42175;46.930;9.532;2023-02-01T07:43:02;23.60;34.50
56268;DHT22;42175;46.930;9.532;2023-02-01T07:45:28;23.60;34.60
56268;DHT22;42175;46.930;9.532;2023-02-01T07:47:53;23.60;34.60
56268;DHT22;42175;46.930;9.532;2023-02-01T07:50:19;23.60;34.70
56268;DHT22;42175;46.930;9.532;2023-02-01T07:52:45;23.60;34.80
56268;DHT22;42175;46.930;9.532;2023-02-01T07:55:11;23.60;34.80
56268;DHT22;42175;46.930;9.532;2023-02-01T07:57:36;23.60;34.80
56268;DHT22;42175;46.930;9.532;2023-02-01T08:00:03;23.60;34.90
56268;DHT22;42175;46.930;9.532;2023-02-01T08:02:47;23.60;35.00
56268;DHT22;42175;46.930;9.532;2023-02-01T08:05:13;23.60;35.00
56268;DHT22;42175;46.930;9.532;2023-02-01T08:07:38;23.70;35.00
56268;DHT22;42175;46.930;9.532;2023-02-01T08:10:04;23.60;35.10
56268;DHT22;42175;46.930;9.532;2023-02-01T08:12:36;23.70;35.10
56268;DHT22;42175;46.930;9.532;2023-02-01T08:15:03;23.60;35.10
56268;DHT22;42175;46.930;9.532;2023-02-01T08:17:29;23.60;35.20
56268;DHT22;42175;46.930;9.532;2023-02-01T08:19:56;23.60;35.30
56268;DHT22;42175;46.930;9.532;2023-02-01T08:22:21;23.70;35.30
56268;DHT22;42175;46.930;9.532;2023-02-01T08:24:50;23.70;35.40
56268;DHT22;42175;46.930;9.532;2023-02-01T08:27:17;23.70;35.40
56268;DHT22;42175;46.930;9.532;2023-02-01T08:29:43;23.70;35.40
56268;DHT22;42175;46.930;9.532;2023-02-01T08:32:09;23.70;35.40
56268;DHT22;42175;46.930;9.532;2023-02-01T08:34:34;23.70;35.40
56268;DHT22;42175;46.930;9.532;2023-02-01T08:37:00;23.70;35.40
56268;DHT22;42175;46.930;9.532;2023-02-01T08:39:26;23.70;36.00
56268;DHT22;42175;46.930;9.532;2023-02-01T08:41:52;23.70;35.40
56268;DHT22;42175;46.930;9.532;2023-02-01T08:44:36;23.70;35.50
56268;DHT22;42175;46.930;9.532;2023-02-01T08:47:02;23.70;35.30
56268;DHT22;42175;46.930;9.532;2023-02-01T08:49:29;23.70;35.40
56268;DHT22;42175;46.930;9.532;2023-02-01T08:51:54;23.70;35.40
56268;DHT22;42175;46.930;9.532;2023-02-01T08:54:21;23.70;35.40
56268;DHT22;42175;46.930;9.532;2023-02-01T08:56:47;23.70;35.40
56268;DHT22;42175;46.930;9.532;2023-02-01T08:59:13;23.70;35.30
56268;DHT22;42175;46.930;9.532;2023-02-01T09:01:38;23.70;35.30
56268;DHT22;42175;46.930;9.532;2023-02-01T09:04:04;23.70;35.30
56268;DHT22;42175;46.930;9.532;2023-02-01T09:06:30;23.70;35.30
56268;DHT22;42175;46.930;9.532;2023-02-01T09:08:56;23.70;35.30
56268;DHT22;42175;46.930;9.532;2023-02-01T09:11:21;23.70;35.30
56268;DHT22;42175;46.930;9.532;2023-02-01T09:13:48;23.70;35.30
56268;DHT22;42175;46.930;9.532;2023-02-01T09:16:14;23.70;35.30
56268;DHT22;42175;46.930;9.532;2023-02-01T09:18:40;23.80;34.90
56268;DHT22;42175;46.930;9.532;2023-02-01T09:21:06;23.80;34.80
56268;DHT22;42175;46.930;9.532;2023-02-01T09:23:33;23.80;34.80
56268;DHT22;42175;46.930;9.532;2023-02-01T09:26:02;23.80;34.80
56268;DHT22;42175;46.930;9.532;2023-02-01T09:28:28;23.80;34.80
56268;DHT22;42175;46.930;9.532;2023-02-01T09:30:59;23.80;34.80
56268;DHT22;42175;46.930;9.532;2023-02-01T09:33:26;23.80;34.70
56268;DHT22;42175;46.930;9.532;2023-02-01T09:36:00;23.80;34.70
56268;DHT22;42175;46.930;9.532;2023-02-01T09:38:26;23.80;34.70
56268;DHT22;42175;46.930;9.532;2023-02-01T09:40:54;23.80;34.70
56268;DHT22;42175;46.930;9.532;2023-02-01T09:48:46;23.80;34.70
56268;DHT22;42175;46.930;9.532;2023-02-01T09:51:23;23.80;34.70
56268;DHT22;42175;46.930;9.532;2023-02-01T09:54:14;23.80;34.70
56268;DHT22;42175;46.930;9.532;2023-02-01T09:57:00;23.80;34.60
56268;DHT22;42175;46.930;9.532;2023-02-01T10:01:58;23.80;34.60
56268;DHT22;42175;46.930;9.532;2023-02-01T10:04:25;23.80;34.70
56268;DHT22;42175;46.930;9.532;2023-02-01T10:09:54;23.80;34.80
56268;DHT22;42175;46.930;9.532;2023-02-01T10:15:55;23.70;35.00
56268;DHT22;42175;46.930;9.532;2023-02-01T10:26:44;23.80;35.10
56268;DHT22;42175;46.930;9.532;2023-02-01T10:29:20;23.70;35.20
56268;DHT22;42175;46.930;9.532;2023-02-01T10:31:48;23.80;35.20
56268;DHT22;42175;46.930;9.532;2023-02-01T10:34:15;23.80;35.30
56268;DHT22;42175;46.930;9.532;2023-02-01T10:36:58;23.70;35.20
56268;DHT22;42175;46.930;9.532;2023-02-01T10:39:25;23.70;35.10
56268;DHT22;42175;46.930;9.532;2023-02-01T10:41:51;23.70;35.10
56268;DHT22;42175;46.930;9.532;2023-02-01T10:44:28;23.70;35.10
56268;DHT22;42175;46.930;9.532;2023-02-01T10:46:55;23.70;35.10
56268;DHT22;42175;46.930;9.532;2023-02-01T10:49:34;23.80;35.10
56268;DHT22;42175;46.930;9.532;2023-02-01T10:52:15;23.80;35.00
56268;DHT22;42175;46.930;9.532;2023-02-01T10:54:42;23.70;35.00
56268;DHT22;42175;46.930;9.532;2023-02-01T10:57:09;23.80;35.00
56268;DHT22;42175;46.930;9.532;2023-02-01T10:59:36;23.80;35.00
56268;DHT22;42175;46.930;9.532;2023-02-01T11:02:35;23.80;35.00
56268;DHT22;42175;46.930;9.532;2023-02-01T11:05:08;23.80;35.00
56268;DHT22;42175;46.930;9.532;2023-02-01T11:07:36;23.80;34.90
56268;DHT22;42175;46.930;9.532;2023-02-01T11:10:03;23.80;34.90
56268;DHT22;42175;46.930;9.532;2023-02-01T11:12:36;23.80;35.60
56268;DHT22;42175;46.930;9.532;2023-02-01T11:17:38;23.80;34.90
56268;DHT22;42175;46.930;9.532;2023-02-01T11:22:55;23.80;34.90
56268;DHT22;42175;46.930;9.532;2023-02-01T11:25:22;23.80;34.90
56268;DHT22;42175;46.930;9.532;2023-02-01T11:27:50;23.80;34.90
56268;DHT22;42175;46.930;9.532;2023-02-01T11:30:22;23.90;34.90
56268;DHT22;42175;46.930;9.532;2023-02-01T11:32:50;23.80;34.80
56268;DHT22;42175;46.930;9.532;2023-02-01T11:35:19;23.80;34.80
56268;DHT22;42175;46.930;9.532;2023-02-01T11:37:54;23.90;34.90
56268;DHT22;42175;46.930;9.532;2023-02-01T11:42:58;23.90;34.80
56268;DHT22;42175;46.930;9.532;2023-02-01T11:45:28;23.90;34.90
56268;DHT22;42175;46.930;9.532;2023-02-01T11:47:57;23.80;34.90
56268;DHT22;42175;46.930;9.532;2023-02-01T11:59:13;23.80;35.00
56268;DHT22;42175;46.930;9.532;2023-02-01T12:12:43;23.90;35.30
56268;DHT22;42175;46.930;9.532;2023-02-01T12:23:52;24.00;35.50
56268;DHT22;42175;46.930;9.532;2023-02-01T12:40:40;24.00;36.00
56268;DHT22;42175;46.930;9.532;2023-02-01T12:43:18;24.00;36.10
56268;DHT22;42175;46.930;9.532;2023-02-01T12:46:04;24.00;36.20
56268;DHT22;42175;46.930;9.532;2023-02-01T12:48:42;24.00;36.20
56268;DHT22;42175;46.930;9.532;2023-02-01T12:51:15;24.00;36.30
56268;DHT22;42175;46.930;9.532;2023-02-01T12:56:37;24.00;36.70
56268;DHT22;42175;46.930;9.532;2023-02-01T12:59:13;24.00;36.60
56268;DHT22;42175;46.930;9.532;2023-02-01T13:01:54;24.00;36.90
56268;DHT22;42175;46.930;9.532;2023-02-01T13:09:53;24.00;36.80
56268;DHT22;42175;46.930;9.532;2023-02-01T13:12:49;24.00;36.90
56268;DHT22;42175;46.930;9.532;2023-02-01T13:15:24;24.00;36.80
56268;DHT22;42175;46.930;9.532;2023-02-01T13:17:52;24.00;36.90
56268;DHT22;42175;46.930;9.532;2023-02-01T13:20:35;24.00;36.90
56268;DHT22;42175;46.930;9.532;2023-02-01T13:23:09;24.00;36.90
56268;DHT22;42175;46.930;9.532;2023-02-01T13:25:46;24.00;36.90
56268;DHT22;42175;46.930;9.532;2023-02-01T13:28:25;23.90;37.00
56268;DHT22;42175;46.930;9.532;2023-02-01T13:31:27;24.00;37.00
56268;DHT22;42175;46.930;9.532;2023-02-01T13:42:27;23.90;30.20
56268;DHT22;42175;46.930;9.532;2023-02-01T13:45:13;22.60;28.90
56268;DHT22;42175;46.930;9.532;2023-02-01T13:47:42;22.10;28.30
56268;DHT22;42175;46.930;9.532;2023-02-01T13:50:36;22.10;30.30
56268;DHT22;42175;46.930;9.532;2023-02-01T13:55:41;22.70;32.30
56268;DHT22;42175;46.930;9.532;2023-02-01T13:58:21;22.90;33.20
56268;DHT22;42175;46.930;9.532;2023-02-01T14:00:48;23.00;33.40
56268;DHT22;42175;46.930;9.532;2023-02-01T14:03:22;23.00;33.50
56268;DHT22;42175;46.930;9.532;2023-02-01T14:15:18;23.30;34.00
56268;DHT22;42175;46.930;9.532;2023-02-01T14:17:44;23.40;34.40
56268;DHT22;42175;46.930;9.532;2023-02-01T14:20:38;23.40;34.40
56268;DHT22;42175;46.930;9.532;2023-02-01T14:23:09;23.50;34.50
56268;DHT22;42175;46.930;9.532;2023-02-01T14:25:36;23.50;34.20
56268;DHT22;42175;46.930;9.532;2023-02-01T14:28:22;23.50;34.10
56268;DHT22;42175;46.930;9.532;2023-02-01T14:30:48;23.50;34.70
56268;DHT22;42175;46.930;9.532;2023-02-01T14:33:20;23.50;34.80
56268;DHT22;42175;46.930;9.532;2023-02-01T14:36:03;23.60;34.90
56268;DHT22;42175;46.930;9.532;2023-02-01T14:38:31;23.60;34.90
56268;DHT22;42175;46.930;9.532;2023-02-01T14:44:13;23.60;35.00
56268;DHT22;42175;46.930;9.532;2023-02-01T14:49:32;23.70;34.90
56268;DHT22;42175;46.930;9.532;2023-02-01T14:51:59;23.70;35.00
56268;DHT22;42175;46.930;9.532;2023-02-01T14:54:25;23.70;35.10
56268;DHT22;42175;46.930;9.532;2023-02-01T14:56:53;23.70;35.10
56268;DHT22;42175;46.930;9.532;2023-02-01T14:59:22;23.70;35.20
56268;DHT22;42175;46.930;9.532;2023-02-01T15:01:58;23.70;35.20
56268;DHT22;42175;46.930;9.532;2023-02-01T15:04:26;23.70;35.30
56268;DHT22;42175;46.930;9.532;2023-02-01T15:06:58;23.70;35.20
56268;DHT22;42175;46.930;9.532;2023-02-01T15:09:39;23.70;35.20
56268;DHT22;42175;46.930;9.532;2023-02-01T15:17:37;23.70;35.30
56268;DHT22;42175;46.930;9.532;2023-02-01T15:22:43;23.70;35.40
56268;DHT22;42175;46.930;9.532;2023-02-01T15:27:51;23.70;35.40
56268;DHT22;42175;46.930;9.532;2023-02-01T15:30:31;23.80;35.60
56268;DHT22;42175;46.930;9.532;2023-02-01T15:35:33;23.80;35.60
56268;DHT22;42175;46.930;9.532;2023-02-01T15:46:11;23.80;35.60
56268;DHT22;42175;46.930;9.532;2023-02-01T15:48:49;23.80;35.50
56268;DHT22;42175;46.930;9.532;2023-02-01T15:51:18;23.80;35.60
56268;DHT22;42175;46.930;9.532;2023-02-01T15:53:47;23.80;35.50
56268;DHT22;42175;46.930;9.532;2023-02-01T15:56:14;23.80;35.50
56268;DHT22;42175;46.930;9.532;2023-02-01T15:58:42;23.80;35.90
56268;DHT22;42175;46.930;9.532;2023-02-01T16:01:11;23.70;35.20
56268;DHT22;42175;46.930;9.532;2023-02-01T16:03:40;23.70;35.50
56268;DHT22;42175;46.930;9.532;2023-02-01T16:08:37;23.80;35.60
56268;DHT22;42175;46.930;9.532;2023-02-01T16:13:32;23.80;35.60
56268;DHT22;42175;46.930;9.532;2023-02-01T16:15:58;23.80;35.70
56268;DHT22;42175;46.930;9.532;2023-02-01T16:18:24;23.80;35.60
56268;DHT22;42175;46.930;9.532;2023-02-01T16:20:49;23.80;35.70
56268;DHT22;42175;46.930;9.532;2023-02-01T16:23:15;23.80;35.60
56268;DHT22;42175;46.930;9.532;2023-02-01T16:25:41;23.70;35.60
56268;DHT22;42175;46.930;9.532;2023-02-01T16:28:07;23.70;35.60
56268;DHT22;42175;46.930;9.532;2023-02-01T16:30:34;23.70;35.60
56268;DHT22;42175;46.930;9.532;2023-02-01T16:33:01;23.70;35.70
56268;DHT22;42175;46.930;9.532;2023-02-01T16:35:34;23.70;35.60
56268;DHT22;42175;46.930;9.532;2023-02-01T16:38:12;23.80;35.70
56268;DHT22;42175;46.930;9.532;2023-02-01T16:40:42;23.80;35.70
56268;DHT22;42175;46.930;9.532;2023-02-01T16:45:40;23.80;35.60
56268;DHT22;42175;46.930;9.532;2023-02-01T16:48:06;23.70;35.40
56268;DHT22;42175;46.930;9.532;2023-02-01T16:50:33;23.60;33.80
56268;DHT22;42175;46.930;9.532;2023-02-01T16:52:59;23.70;35.00
56268;DHT22;42175;46.930;9.532;2023-02-01T16:55:26;23.80;35.40
56268;DHT22;42175;46.930;9.532;2023-02-01T16:57:53;23.80;35.50
56268;DHT22;42175;46.930;9.532;2023-02-01T17:00:19;23.80;35.40
56268;DHT22;42175;46.930;9.532;2023-02-01T17:02:45;23.90;35.60
56268;DHT22;42175;46.930;9.532;2023-02-01T17:05:11;23.90;35.70
56268;DHT22;42175;46.930;9.532;2023-02-01T17:07:38;23.90;35.70
56268;DHT22;42175;46.930;9.532;2023-02-01T17:10:06;23.90;35.70
56268;DHT22;42175;46.930;9.532;2023-02-01T17:12:32;23.90;35.70
56268;DHT22;42175;46.930;9.532;2023-02-01T17:14:59;23.80;35.80
56268;DHT22;42175;46.930;9.532;2023-02-01T17:17:36;23.80;35.80
56268;DHT22;42175;46.930;9.532;2023-02-01T17:20:04;23.80;36.00
56268;DHT22;42175;46.930;9.532;2023-02-01T17:22:32;23.80;35.90
56268;DHT22;42175;46.930;9.532;2023-02-01T17:24:57;23.90;35.90
56268;DHT22;42175;46.930;9.532;2023-02-01T17:27:23;23.80;35.90
56268;DHT22;42175;46.930;9.532;2023-02-01T17:29:49;23.90;36.50
56268;DHT22;42175;46.930;9.532;2023-02-01T17:32:21;23.90;35.90
56268;DHT22;42175;46.930;9.532;2023-02-01T17:34:48;23.90;35.90
56268;DHT22;42175;46.930;9.532;2023-02-01T17:37:29;23.90;36.00
56268;DHT22;42175;46.930;9.532;2023-02-01T17:39:55;23.90;35.90
56268;DHT22;42175;46.930;9.532;2023-02-01T17:42:26;24.00;36.20
56268;DHT22;42175;46.930;9.532;2023-02-01T17:44:56;24.00;36.30
56268;DHT22;42175;46.930;9.532;2023-02-01T17:47:22;23.90;36.70
56268;DHT22;42175;46.930;9.532;2023-02-01T17:49:48;23.90;34.60
56268;DHT22;42175;46.930;9.532;2023-02-01T17:52:20;23.90;35.60
56268;DHT22;42175;46.930;9.532;2023-02-01T17:54:47;24.00;36.60
56268;DHT22;42175;46.930;9.532;2023-02-01T17:57:15;24.00;36.90
56268;DHT22;42175;46.930;9.532;2023-02-01T17:59:42;24.00;37.30
56268;DHT22;42175;46.930;9.532;2023-02-01T18:02:22;24.00;36.80
56268;DHT22;42175;46.930;9.532;2023-02-01T18:04:49;24.00;37.20
56268;DHT22;42175;46.930;9.532;2023-02-01T18:07:16;24.00;37.60
56268;DHT22;42175;46.930;9.532;2023-02-01T18:09:42;24.00;37.50
56268;DHT22;42175;46.930;9.532;2023-02-01T18:12:19;24.00;37.60
56268;DHT22;42175;46.930;9.532;2023-02-01T18:14:45;24.00;37.90
56268;DHT22;42175;46.930;9.532;2023-02-01T18:17:11;24.00;37.80
56268;DHT22;42175;46.930;9.532;2023-02-01T18:19:37;24.00;38.00
56268;DHT22;42175;46.930;9.532;2023-02-01T18:22:03;24.00;38.10
56268;DHT22;42175;46.930;9.532;2023-02-01T18:24:30;24.00;38.00
56268;DHT22;42175;46.930;9.532;2023-02-01T18:26:58;24.00;38.20
56268;DHT22;42175;46.930;9.532;2023-02-01T18:29:24;24.00;38.20
56268;DHT22;42175;46.930;9.532;2023-02-01T18:31:50;24.00;38.20
56268;DHT22;42175;46.930;9.532;2023-02-01T18:34:16;24.00;38.10
56268;DHT22;42175;46.930;9.532;2023-02-01T18:36:47;24.00;38.20
56268;DHT22;42175;46.930;9.532;2023-02-01T18:39:13;24.10;38.30
56268;DHT22;42175;46.930;9.532;2023-02-01T18:41:39;24.10;38.30